sensor_id;sensor_type;location;lat;lon;timestamp;P1;durP1;ratioP1;P2;durP2;ratioP2
7150;SDS011;3617;48.836;9.172;2022-07-06T00:01:58;4.80;;;2.23;;
7150;SDS011;3617;48.836;9.172;2022-07-06T00:04:24;5.23;;;2.30;;
7150;SDS011;3617;48.836;9.172;2022-07-06T00:06:50;4.33;;;2.40;;
7150;SDS011;3617;48.836;9.172;2022-07-06T00:09:16;6.43;;;2.20;;
7150;SDS011;3617;48.836;9.172;2022-07-06T00:11:43;2.53;;;2.33;;
7150;SDS011;3617;48.836;9.172;2022-07-06T00:14:09;2.73;;;2.40;;
7150;SDS011;3617;48.836;9.172;2022-07-06T00:16:35;3.27;;;2.60;;
7150;SDS011;3617;48.836;9.172;2022-07-06T00:19:01;3.90;;;2.60;;
7150;SDS011;3617;48.836;9.172;2022-07-06T00:21:27;11.97;;;2.70;;
7150;SDS011;3617;48.836;9.172;2022-07-06T00:23:53;3.57;;;2.70;;
7150;SDS011;3617;48.836;9.172;2022-07-06T00:26:19;3.20;;;2.80;;
7150;SDS011;3617;48.836;9.172;2022-07-06T00:28:45;3.57;;;2.77;;
7150;SDS011;3617;48.836;9.172;2022-07-06T00:31:12;4.47;;;2.77;;
7150;SDS011;3617;48.836;9.172;2022-07-06T00:33:38;3.17;;;2.30;;
7150;SDS011;3617;48.836;9.172;2022-07-06T00:36:04;3.87;;;2.67;;
7150;SDS011;3617;48.836;9.172;2022-07-06T00:38:30;2.93;;;2.40;;
7150;SDS011;3617;48.836;9.172;2022-07-06T00:40:56;4.20;;;2.40;;
7150;SDS011;3617;48.836;9.172;2022-07-06T00:43:22;3.50;;;2.83;;
7150;SDS011;3617;48.836;9.172;2022-07-06T00:45:48;3.00;;;2.60;;
7150;SDS011;3617;48.836;9.172;2022-07-06T00:48:14;2.87;;;2.67;;
7150;SDS011;3617;48.836;9.172;2022-07-06T00:50:41;3.10;;;2.63;;
7150;SDS011;3617;48.836;9.172;2022-07-06T00:53:07;3.90;;;2.77;;
7150;SDS011;3617;48.836;9.172;2022-07-06T00:55:35;5.03;;;2.70;;
7150;SDS011;3617;48.836;9.172;2022-07-06T00:58:02;4.47;;;3.13;;
7150;SDS011;3617;48.836;9.172;2022-07-06T01:00:29;4.30;;;2.73;;
7150;SDS011;3617;48.836;9.172;2022-07-06T01:02:56;3.43;;;3.07;;
7150;SDS011;3617;48.836;9.172;2022-07-06T01:05:22;6.00;;;3.13;;
7150;SDS011;3617;48.836;9.172;2022-07-06T01:07:49;4.23;;;2.97;;
7150;SDS011;3617;48.836;9.172;2022-07-06T01:10:16;3.63;;;2.80;;
7150;SDS011;3617;48.836;9.172;2022-07-06T01:12:43;3.90;;;2.80;;
7150;SDS011;3617;48.836;9.172;2022-07-06T01:15:11;7.53;;;2.90;;
7150;SDS011;3617;48.836;9.172;2022-07-06T01:17:38;3.67;;;2.67;;
7150;SDS011;3617;48.836;9.172;2022-07-06T01:22:34;4.00;;;2.57;;
7150;SDS011;3617;48.836;9.172;2022-07-06T01:25:00;4.80;;;2.57;;
7150;SDS011;3617;48.836;9.172;2022-07-06T01:27:26;3.97;;;2.60;;
7150;SDS011;3617;48.836;9.172;2022-07-06T01:29:52;3.50;;;2.27;;
7150;SDS011;3617;48.836;9.172;2022-07-06T01:32:18;6.30;;;2.80;;
7150;SDS011;3617;48.836;9.172;2022-07-06T01:34:44;3.47;;;2.63;;
7150;SDS011;3617;48.836;9.172;2022-07-06T01:37:10;3.30;;;2.80;;
7150;SDS011;3617;48.836;9.172;2022-07-06T01:39:36;2.50;;;2.30;;
7150;SDS011;3617;48.836;9.172;2022-07-06T01:42:02;4.33;;;2.43;;
7150;SDS011;3617;48.836;9.172;2022-07-06T01:44:28;3.70;;;2.37;;
7150;SDS011;3617;48.836;9.172;2022-07-06T01:46:54;2.93;;;2.00;;
7150;SDS011;3617;48.836;9.172;2022-07-06T01:49:20;2.33;;;2.13;;
7150;SDS011;3617;48.836;9.172;2022-07-06T01:51:47;3.70;;;2.40;;
7150;SDS011;3617;48.836;9.172;2022-07-06T01:54:13;3.53;;;2.53;;
7150;SDS011;3617;48.836;9.172;2022-07-06T01:56:39;3.43;;;2.23;;
7150;SDS011;3617;48.836;9.172;2022-07-06T01:59:05;2.53;;;2.27;;
7150;SDS011;3617;48.836;9.172;2022-07-06T02:01:31;3.03;;;2.50;;
7150;SDS011;3617;48.836;9.172;2022-07-06T02:03:57;3.97;;;2.43;;
7150;SDS011;3617;48.836;9.172;2022-07-06T02:06:23;3.47;;;2.30;;
7150;SDS011;3617;48.836;9.172;2022-07-06T02:08:49;4.30;;;2.50;;
7150;SDS011;3617;48.836;9.172;2022-07-06T02:11:16;2.23;;;2.03;;
7150;SDS011;3617;48.836;9.172;2022-07-06T02:13:42;3.47;;;2.40;;
7150;SDS011;3617;48.836;9.172;2022-07-06T02:16:08;5.60;;;2.40;;
7150;SDS011;3617;48.836;9.172;2022-07-06T02:18:35;2.53;;;2.33;;
7150;SDS011;3617;48.836;9.172;2022-07-06T02:21:01;3.40;;;2.50;;
7150;SDS011;3617;48.836;9.172;2022-07-06T02:23:28;6.70;;;2.57;;
7150;SDS011;3617;48.836;9.172;2022-07-06T02:25:54;2.60;;;2.40;;
7150;SDS011;3617;48.836;9.172;2022-07-06T02:28:20;6.47;;;2.30;;
7150;SDS011;3617;48.836;9.172;2022-07-06T02:30:46;4.73;;;2.60;;
7150;SDS011;3617;48.836;9.172;2022-07-06T02:33:12;3.57;;;2.70;;
7150;SDS011;3617;48.836;9.172;2022-07-06T02:35:38;2.57;;;2.37;;
7150;SDS011;3617;48.836;9.172;2022-07-06T02:38:07;3.47;;;2.57;;
7150;SDS011;3617;48.836;9.172;2022-07-06T02:40:33;4.90;;;2.83;;
7150;SDS011;3617;48.836;9.172;2022-07-06T02:43:00;3.00;;;2.40;;
7150;SDS011;3617;48.836;9.172;2022-07-06T02:45:26;4.67;;;2.87;;
7150;SDS011;3617;48.836;9.172;2022-07-06T02:47:52;3.33;;;2.20;;
7150;SDS011;3617;48.836;9.172;2022-07-06T02:50:20;2.97;;;2.13;;
7150;SDS011;3617;48.836;9.172;2022-07-06T02:52:46;8.23;;;2.87;;
7150;SDS011;3617;48.836;9.172;2022-07-06T02:55:12;5.97;;;2.97;;
7150;SDS011;3617;48.836;9.172;2022-07-06T02:57:38;2.87;;;2.13;;
7150;SDS011;3617;48.836;9.172;2022-07-06T03:00:04;3.43;;;2.67;;
7150;SDS011;3617;48.836;9.172;2022-07-06T03:02:30;2.70;;;2.50;;
7150;SDS011;3617;48.836;9.172;2022-07-06T03:04:56;2.53;;;2.33;;
7150;SDS011;3617;48.836;9.172;2022-07-06T03:07:22;4.17;;;2.80;;
7150;SDS011;3617;48.836;9.172;2022-07-06T03:09:49;2.83;;;2.53;;
7150;SDS011;3617;48.836;9.172;2022-07-06T03:12:15;3.13;;;2.70;;
7150;SDS011;3617;48.836;9.172;2022-07-06T03:14:41;3.20;;;2.90;;
7150;SDS011;3617;48.836;9.172;2022-07-06T03:17:07;4.50;;;2.90;;
7150;SDS011;3617;48.836;9.172;2022-07-06T03:19:33;7.80;;;2.93;;
7150;SDS011;3617;48.836;9.172;2022-07-06T03:21:59;5.23;;;2.60;;
7150;SDS011;3617;48.836;9.172;2022-07-06T03:24:25;4.47;;;2.77;;
7150;SDS011;3617;48.836;9.172;2022-07-06T03:26:52;5.67;;;2.87;;
7150;SDS011;3617;48.836;9.172;2022-07-06T03:29:18;3.70;;;3.33;;
7150;SDS011;3617;48.836;9.172;2022-07-06T03:31:45;3.20;;;2.80;;
7150;SDS011;3617;48.836;9.172;2022-07-06T03:34:11;3.83;;;2.90;;
7150;SDS011;3617;48.836;9.172;2022-07-06T03:36:37;3.23;;;2.83;;
7150;SDS011;3617;48.836;9.172;2022-07-06T03:39:04;5.20;;;3.13;;
7150;SDS011;3617;48.836;9.172;2022-07-06T03:41:30;4.03;;;3.30;;
7150;SDS011;3617;48.836;9.172;2022-07-06T03:43:56;8.13;;;3.63;;
7150;SDS011;3617;48.836;9.172;2022-07-06T03:46:22;4.17;;;3.30;;
7150;SDS011;3617;48.836;9.172;2022-07-06T03:48:48;6.23;;;3.30;;
7150;SDS011;3617;48.836;9.172;2022-07-06T03:51:14;4.40;;;3.20;;
7150;SDS011;3617;48.836;9.172;2022-07-06T03:53:40;4.87;;;3.60;;
7150;SDS011;3617;48.836;9.172;2022-07-06T03:56:06;5.37;;;3.50;;
7150;SDS011;3617;48.836;9.172;2022-07-06T03:58:50;5.83;;;3.30;;
7150;SDS011;3617;48.836;9.172;2022-07-06T04:01:16;6.00;;;3.37;;
7150;SDS011;3617;48.836;9.172;2022-07-06T04:03:42;7.03;;;3.30;;
7150;SDS011;3617;48.836;9.172;2022-07-06T04:06:09;4.77;;;3.20;;
7150;SDS011;3617;48.836;9.172;2022-07-06T04:08:35;6.63;;;3.47;;
7150;SDS011;3617;48.836;9.172;2022-07-06T04:11:02;4.37;;;3.20;;
7150;SDS011;3617;48.836;9.172;2022-07-06T04:13:28;7.13;;;3.60;;
7150;SDS011;3617;48.836;9.172;2022-07-06T04:15:54;4.83;;;3.67;;
7150;SDS011;3617;48.836;9.172;2022-07-06T04:18:20;5.47;;;3.60;;
7150;SDS011;3617;48.836;9.172;2022-07-06T04:20:46;4.00;;;3.60;;
7150;SDS011;3617;48.836;9.172;2022-07-06T04:23:12;4.97;;;3.50;;
7150;SDS011;3617;48.836;9.172;2022-07-06T04:25:38;6.53;;;3.87;;
7150;SDS011;3617;48.836;9.172;2022-07-06T04:28:04;5.87;;;3.60;;
7150;SDS011;3617;48.836;9.172;2022-07-06T04:30:30;4.27;;;3.90;;
7150;SDS011;3617;48.836;9.172;2022-07-06T04:32:56;4.10;;;3.37;;
7150;SDS011;3617;48.836;9.172;2022-07-06T04:35:22;5.47;;;3.90;;
7150;SDS011;3617;48.836;9.172;2022-07-06T04:37:48;3.73;;;3.40;;
7150;SDS011;3617;48.836;9.172;2022-07-06T04:40:15;3.97;;;3.50;;
7150;SDS011;3617;48.836;9.172;2022-07-06T04:42:41;5.73;;;3.77;;
7150;SDS011;3617;48.836;9.172;2022-07-06T04:45:07;5.63;;;3.50;;
7150;SDS011;3617;48.836;9.172;2022-07-06T04:47:34;3.07;;;2.80;;
7150;SDS011;3617;48.836;9.172;2022-07-06T04:50:00;7.43;;;3.37;;
7150;SDS011;3617;48.836;9.172;2022-07-06T04:52:26;3.93;;;3.17;;
7150;SDS011;3617;48.836;9.172;2022-07-06T04:54:53;5.23;;;3.27;;
7150;SDS011;3617;48.836;9.172;2022-07-06T04:57:19;4.60;;;2.83;;
7150;SDS011;3617;48.836;9.172;2022-07-06T04:59:46;3.58;;;3.10;;
7150;SDS011;3617;48.836;9.172;2022-07-06T05:02:12;3.60;;;3.30;;
7150;SDS011;3617;48.836;9.172;2022-07-06T05:04:38;3.67;;;3.20;;
7150;SDS011;3617;48.836;9.172;2022-07-06T05:07:04;6.38;;;3.08;;
7150;SDS011;3617;48.836;9.172;2022-07-06T05:09:30;4.28;;;2.90;;
7150;SDS011;3617;48.836;9.172;2022-07-06T05:11:56;3.95;;;3.05;;
7150;SDS011;3617;48.836;9.172;2022-07-06T05:14:22;5.72;;;3.00;;
7150;SDS011;3617;48.836;9.172;2022-07-06T05:16:48;4.10;;;3.15;;
7150;SDS011;3617;48.836;9.172;2022-07-06T05:19:14;7.05;;;2.90;;
7150;SDS011;3617;48.836;9.172;2022-07-06T05:21:40;5.25;;;2.60;;
7150;SDS011;3617;48.836;9.172;2022-07-06T05:24:06;3.88;;;2.95;;
7150;SDS011;3617;48.836;9.172;2022-07-06T05:26:32;3.65;;;2.85;;
7150;SDS011;3617;48.836;9.172;2022-07-06T05:28:58;3.00;;;2.70;;
7150;SDS011;3617;48.836;9.172;2022-07-06T05:31:24;3.08;;;2.70;;
7150;SDS011;3617;48.836;9.172;2022-07-06T05:33:50;4.65;;;2.70;;
7150;SDS011;3617;48.836;9.172;2022-07-06T05:36:16;4.45;;;2.75;;
7150;SDS011;3617;48.836;9.172;2022-07-06T05:38:43;3.53;;;2.40;;
7150;SDS011;3617;48.836;9.172;2022-07-06T05:41:09;4.88;;;2.83;;
7150;SDS011;3617;48.836;9.172;2022-07-06T05:43:35;4.15;;;2.80;;
7150;SDS011;3617;48.836;9.172;2022-07-06T05:46:02;4.57;;;2.65;;
7150;SDS011;3617;48.836;9.172;2022-07-06T05:48:28;4.13;;;2.60;;
7150;SDS011;3617;48.836;9.172;2022-07-06T05:51:13;2.83;;;2.47;;
7150;SDS011;3617;48.836;9.172;2022-07-06T05:53:39;4.53;;;2.55;;
7150;SDS011;3617;48.836;9.172;2022-07-06T05:56:05;4.75;;;2.83;;
7150;SDS011;3617;48.836;9.172;2022-07-06T05:58:31;3.55;;;2.40;;
7150;SDS011;3617;48.836;9.172;2022-07-06T06:00:57;3.35;;;2.20;;
7150;SDS011;3617;48.836;9.172;2022-07-06T06:03:23;3.95;;;2.28;;
7150;SDS011;3617;48.836;9.172;2022-07-06T06:05:49;2.42;;;2.20;;
7150;SDS011;3617;48.836;9.172;2022-07-06T06:08:16;5.32;;;2.67;;
7150;SDS011;3617;48.836;9.172;2022-07-06T06:10:42;3.80;;;2.60;;
7150;SDS011;3617;48.836;9.172;2022-07-06T06:13:08;3.67;;;2.50;;
7150;SDS011;3617;48.836;9.172;2022-07-06T06:15:34;3.85;;;2.50;;
7150;SDS011;3617;48.836;9.172;2022-07-06T06:18:00;7.57;;;3.22;;
7150;SDS011;3617;48.836;9.172;2022-07-06T06:20:27;4.82;;;2.30;;
7150;SDS011;3617;48.836;9.172;2022-07-06T06:22:56;5.25;;;2.75;;
7150;SDS011;3617;48.836;9.172;2022-07-06T06:25:33;5.35;;;2.53;;
7150;SDS011;3617;48.836;9.172;2022-07-06T06:27:59;4.65;;;3.13;;
7150;SDS011;3617;48.836;9.172;2022-07-06T06:30:26;2.85;;;2.40;;
7150;SDS011;3617;48.836;9.172;2022-07-06T06:33:03;6.20;;;2.80;;
7150;SDS011;3617;48.836;9.172;2022-07-06T06:35:29;2.85;;;2.47;;
7150;SDS011;3617;48.836;9.172;2022-07-06T06:37:55;8.02;;;2.60;;
7150;SDS011;3617;48.836;9.172;2022-07-06T06:40:21;3.55;;;2.70;;
7150;SDS011;3617;48.836;9.172;2022-07-06T06:42:47;4.50;;;2.80;;
7150;SDS011;3617;48.836;9.172;2022-07-06T06:45:14;4.70;;;2.83;;
7150;SDS011;3617;48.836;9.172;2022-07-06T06:47:40;5.30;;;2.42;;
7150;SDS011;3617;48.836;9.172;2022-07-06T06:50:06;11.05;;;2.78;;
7150;SDS011;3617;48.836;9.172;2022-07-06T06:52:32;4.50;;;2.47;;
7150;SDS011;3617;48.836;9.172;2022-07-06T06:54:58;5.68;;;2.60;;
7150;SDS011;3617;48.836;9.172;2022-07-06T06:57:24;7.28;;;2.65;;
7150;SDS011;3617;48.836;9.172;2022-07-06T06:59:50;4.47;;;3.08;;
7150;SDS011;3617;48.836;9.172;2022-07-06T07:02:17;2.65;;;2.30;;
7150;SDS011;3617;48.836;9.172;2022-07-06T07:04:43;3.65;;;2.75;;
7150;SDS011;3617;48.836;9.172;2022-07-06T07:07:09;6.20;;;2.78;;
7150;SDS011;3617;48.836;9.172;2022-07-06T07:09:35;6.47;;;2.50;;
7150;SDS011;3617;48.836;9.172;2022-07-06T07:12:01;4.30;;;2.50;;
7150;SDS011;3617;48.836;9.172;2022-07-06T07:14:27;6.93;;;2.85;;
7150;SDS011;3617;48.836;9.172;2022-07-06T07:16:53;5.10;;;2.63;;
7150;SDS011;3617;48.836;9.172;2022-07-06T07:19:19;4.95;;;2.20;;
7150;SDS011;3617;48.836;9.172;2022-07-06T07:21:45;4.75;;;2.45;;
7150;SDS011;3617;48.836;9.172;2022-07-06T07:24:11;2.40;;;2.20;;
7150;SDS011;3617;48.836;9.172;2022-07-06T07:26:37;2.80;;;2.10;;
7150;SDS011;3617;48.836;9.172;2022-07-06T07:29:03;4.93;;;2.35;;
7150;SDS011;3617;48.836;9.172;2022-07-06T07:31:29;4.75;;;2.50;;
7150;SDS011;3617;48.836;9.172;2022-07-06T07:33:55;5.95;;;2.53;;
7150;SDS011;3617;48.836;9.172;2022-07-06T07:36:23;3.63;;;2.70;;
7150;SDS011;3617;48.836;9.172;2022-07-06T07:38:49;3.70;;;2.55;;
7150;SDS011;3617;48.836;9.172;2022-07-06T07:41:15;5.72;;;2.10;;
7150;SDS011;3617;48.836;9.172;2022-07-06T07:43:42;4.78;;;2.30;;
7150;SDS011;3617;48.836;9.172;2022-07-06T07:46:08;3.33;;;2.47;;
7150;SDS011;3617;48.836;9.172;2022-07-06T07:48:34;4.38;;;2.60;;
7150;SDS011;3617;48.836;9.172;2022-07-06T07:51:00;3.70;;;2.33;;
7150;SDS011;3617;48.836;9.172;2022-07-06T07:53:26;3.80;;;2.10;;
7150;SDS011;3617;48.836;9.172;2022-07-06T07:55:52;2.60;;;2.33;;
7150;SDS011;3617;48.836;9.172;2022-07-06T07:58:18;3.05;;;1.98;;
7150;SDS011;3617;48.836;9.172;2022-07-06T08:00:44;3.80;;;2.25;;
7150;SDS011;3617;48.836;9.172;2022-07-06T08:03:11;5.60;;;2.40;;
7150;SDS011;3617;48.836;9.172;2022-07-06T08:05:37;3.97;;;2.30;;
7150;SDS011;3617;48.836;9.172;2022-07-06T08:08:03;3.75;;;2.22;;
7150;SDS011;3617;48.836;9.172;2022-07-06T08:10:29;2.20;;;2.00;;
7150;SDS011;3617;48.836;9.172;2022-07-06T08:12:55;2.38;;;2.00;;
7150;SDS011;3617;48.836;9.172;2022-07-06T08:15:22;4.15;;;2.40;;
7150;SDS011;3617;48.836;9.172;2022-07-06T08:17:48;5.32;;;2.53;;
7150;SDS011;3617;48.836;9.172;2022-07-06T08:20:14;3.22;;;2.15;;
7150;SDS011;3617;48.836;9.172;2022-07-06T08:22:41;3.50;;;2.40;;
7150;SDS011;3617;48.836;9.172;2022-07-06T08:25:07;2.10;;;1.90;;
7150;SDS011;3617;48.836;9.172;2022-07-06T08:27:33;3.50;;;2.15;;
7150;SDS011;3617;48.836;9.172;2022-07-06T08:29:59;3.55;;;2.20;;
7150;SDS011;3617;48.836;9.172;2022-07-06T08:32:25;3.38;;;2.13;;
7150;SDS011;3617;48.836;9.172;2022-07-06T08:34:52;2.22;;;2.03;;
7150;SDS011;3617;48.836;9.172;2022-07-06T08:37:18;3.75;;;2.20;;
7150;SDS011;3617;48.836;9.172;2022-07-06T08:39:44;4.00;;;2.13;;
7150;SDS011;3617;48.836;9.172;2022-07-06T08:42:10;3.78;;;2.00;;
7150;SDS011;3617;48.836;9.172;2022-07-06T08:44:38;3.45;;;1.67;;
7150;SDS011;3617;48.836;9.172;2022-07-06T08:47:05;6.88;;;2.40;;
7150;SDS011;3617;48.836;9.172;2022-07-06T08:49:32;2.10;;;1.90;;
7150;SDS011;3617;48.836;9.172;2022-07-06T08:51:59;2.97;;;2.10;;
7150;SDS011;3617;48.836;9.172;2022-07-06T08:54:25;4.32;;;2.28;;
7150;SDS011;3617;48.836;9.172;2022-07-06T08:56:52;4.07;;;2.35;;
7150;SDS011;3617;48.836;9.172;2022-07-06T08:59:18;5.88;;;2.10;;
7150;SDS011;3617;48.836;9.172;2022-07-06T09:01:44;3.00;;;2.65;;
7150;SDS011;3617;48.836;9.172;2022-07-06T09:04:12;3.90;;;2.78;;
7150;SDS011;3617;48.836;9.172;2022-07-06T09:06:38;2.80;;;2.30;;
7150;SDS011;3617;48.836;9.172;2022-07-06T09:09:06;3.00;;;2.17;;
7150;SDS011;3617;48.836;9.172;2022-07-06T09:11:33;2.83;;;2.53;;
7150;SDS011;3617;48.836;9.172;2022-07-06T09:14:00;2.25;;;1.90;;
7150;SDS011;3617;48.836;9.172;2022-07-06T09:16:27;3.05;;;2.22;;
7150;SDS011;3617;48.836;9.172;2022-07-06T09:18:54;4.32;;;2.30;;
7150;SDS011;3617;48.836;9.172;2022-07-06T09:21:24;3.20;;;2.20;;
7150;SDS011;3617;48.836;9.172;2022-07-06T09:23:55;2.28;;;2.08;;
7150;SDS011;3617;48.836;9.172;2022-07-06T09:26:21;3.95;;;2.10;;
7150;SDS011;3617;48.836;9.172;2022-07-06T09:28:47;3.03;;;2.30;;
7150;SDS011;3617;48.836;9.172;2022-07-06T09:31:13;2.55;;;2.33;;
7150;SDS011;3617;48.836;9.172;2022-07-06T09:33:52;2.90;;;2.20;;
7150;SDS011;3617;48.836;9.172;2022-07-06T09:36:23;4.05;;;2.17;;
7150;SDS011;3617;48.836;9.172;2022-07-06T09:39:14;2.42;;;1.90;;
7150;SDS011;3617;48.836;9.172;2022-07-06T09:41:40;2.38;;;2.17;;
7150;SDS011;3617;48.836;9.172;2022-07-06T09:44:06;5.05;;;2.40;;
7150;SDS011;3617;48.836;9.172;2022-07-06T09:46:51;3.20;;;2.13;;
7150;SDS011;3617;48.836;9.172;2022-07-06T09:49:18;3.63;;;2.20;;
7150;SDS011;3617;48.836;9.172;2022-07-06T09:51:45;2.30;;;1.85;;
7150;SDS011;3617;48.836;9.172;2022-07-06T09:54:11;3.00;;;1.90;;
7150;SDS011;3617;48.836;9.172;2022-07-06T09:56:41;4.35;;;2.65;;
7150;SDS011;3617;48.836;9.172;2022-07-06T09:59:08;5.07;;;2.40;;
7150;SDS011;3617;48.836;9.172;2022-07-06T10:01:35;5.22;;;2.33;;
7150;SDS011;3617;48.836;9.172;2022-07-06T10:04:01;3.13;;;2.60;;
7150;SDS011;3617;48.836;9.172;2022-07-06T10:06:28;4.10;;;2.78;;
7150;SDS011;3617;48.836;9.172;2022-07-06T10:08:54;3.50;;;2.40;;
7150;SDS011;3617;48.836;9.172;2022-07-06T10:11:21;3.78;;;2.60;;
7150;SDS011;3617;48.836;9.172;2022-07-06T10:13:47;4.85;;;2.50;;
7150;SDS011;3617;48.836;9.172;2022-07-06T10:16:14;5.10;;;2.70;;
7150;SDS011;3617;48.836;9.172;2022-07-06T10:18:40;3.47;;;2.80;;
7150;SDS011;3617;48.836;9.172;2022-07-06T10:21:07;4.85;;;3.08;;
7150;SDS011;3617;48.836;9.172;2022-07-06T10:23:34;4.70;;;2.70;;
7150;SDS011;3617;48.836;9.172;2022-07-06T10:26:00;3.58;;;2.63;;
7150;SDS011;3617;48.836;9.172;2022-07-06T10:28:27;7.60;;;3.00;;
7150;SDS011;3617;48.836;9.172;2022-07-06T10:30:54;5.45;;;2.75;;
7150;SDS011;3617;48.836;9.172;2022-07-06T10:33:21;5.65;;;2.53;;
7150;SDS011;3617;48.836;9.172;2022-07-06T10:35:47;6.28;;;2.50;;
7150;SDS011;3617;48.836;9.172;2022-07-06T10:38:15;4.07;;;2.80;;
7150;SDS011;3617;48.836;9.172;2022-07-06T10:40:42;4.45;;;2.80;;
7150;SDS011;3617;48.836;9.172;2022-07-06T10:43:33;3.83;;;3.05;;
7150;SDS011;3617;48.836;9.172;2022-07-06T10:46:05;4.00;;;2.45;;
7150;SDS011;3617;48.836;9.172;2022-07-06T10:48:35;3.45;;;2.60;;
7150;SDS011;3617;48.836;9.172;2022-07-06T10:51:01;2.45;;;2.25;;
7150;SDS011;3617;48.836;9.172;2022-07-06T10:53:35;2.20;;;2.00;;
7150;SDS011;3617;48.836;9.172;2022-07-06T10:56:04;3.20;;;2.40;;
7150;SDS011;3617;48.836;9.172;2022-07-06T11:01:04;5.57;;;2.45;;
7150;SDS011;3617;48.836;9.172;2022-07-06T11:06:00;3.20;;;2.40;;
7150;SDS011;3617;48.836;9.172;2022-07-06T11:13:47;3.03;;;2.47;;
7150;SDS011;3617;48.836;9.172;2022-07-06T11:16:15;3.50;;;2.20;;
7150;SDS011;3617;48.836;9.172;2022-07-06T11:18:41;5.03;;;2.67;;
7150;SDS011;3617;48.836;9.172;2022-07-06T11:21:14;4.38;;;2.28;;
7150;SDS011;3617;48.836;9.172;2022-07-06T11:23:41;6.22;;;2.33;;
7150;SDS011;3617;48.836;9.172;2022-07-06T11:26:07;5.88;;;2.65;;
7150;SDS011;3617;48.836;9.172;2022-07-06T11:28:34;5.63;;;2.50;;
7150;SDS011;3617;48.836;9.172;2022-07-06T11:31:00;2.58;;;2.38;;
7150;SDS011;3617;48.836;9.172;2022-07-06T11:33:29;4.22;;;2.70;;
7150;SDS011;3617;48.836;9.172;2022-07-06T11:36:14;6.60;;;2.30;;
7150;SDS011;3617;48.836;9.172;2022-07-06T11:38:41;3.88;;;2.80;;
7150;SDS011;3617;48.836;9.172;2022-07-06T11:41:08;6.70;;;3.20;;
7150;SDS011;3617;48.836;9.172;2022-07-06T11:43:34;4.65;;;2.75;;
7150;SDS011;3617;48.836;9.172;2022-07-06T11:46:02;5.13;;;2.47;;
7150;SDS011;3617;48.836;9.172;2022-07-06T11:48:28;5.72;;;2.47;;
7150;SDS011;3617;48.836;9.172;2022-07-06T11:50:58;5.75;;;3.15;;
7150;SDS011;3617;48.836;9.172;2022-07-06T11:53:24;6.05;;;2.60;;
7150;SDS011;3617;48.836;9.172;2022-07-06T11:55:51;3.05;;;2.75;;
7150;SDS011;3617;48.836;9.172;2022-07-06T11:58:18;5.10;;;2.95;;
7150;SDS011;3617;48.836;9.172;2022-07-06T12:01:02;4.35;;;2.78;;
7150;SDS011;3617;48.836;9.172;2022-07-06T12:03:28;4.32;;;2.50;;
7150;SDS011;3617;48.836;9.172;2022-07-06T12:05:54;3.97;;;2.20;;
7150;SDS011;3617;48.836;9.172;2022-07-06T12:08:20;4.07;;;2.65;;
7150;SDS011;3617;48.836;9.172;2022-07-06T12:10:46;8.55;;;2.60;;
7150;SDS011;3617;48.836;9.172;2022-07-06T12:13:12;12.32;;;2.95;;
7150;SDS011;3617;48.836;9.172;2022-07-06T12:15:38;5.43;;;2.88;;
7150;SDS011;3617;48.836;9.172;2022-07-06T12:18:04;5.65;;;2.50;;
7150;SDS011;3617;48.836;9.172;2022-07-06T12:20:30;4.25;;;2.53;;
7150;SDS011;3617;48.836;9.172;2022-07-06T12:23:03;4.22;;;2.65;;
7150;SDS011;3617;48.836;9.172;2022-07-06T12:25:32;4.78;;;2.58;;
7150;SDS011;3617;48.836;9.172;2022-07-06T12:27:58;3.60;;;2.40;;
7150;SDS011;3617;48.836;9.172;2022-07-06T12:30:24;4.97;;;2.65;;
7150;SDS011;3617;48.836;9.172;2022-07-06T12:33:33;4.03;;;2.88;;
7150;SDS011;3617;48.836;9.172;2022-07-06T12:35:45;4.13;;;2.72;;
7150;SDS011;3617;48.836;9.172;2022-07-06T12:38:11;4.13;;;2.50;;
7150;SDS011;3617;48.836;9.172;2022-07-06T12:40:38;7.88;;;2.63;;
7150;SDS011;3617;48.836;9.172;2022-07-06T12:43:04;10.88;;;2.80;;
7150;SDS011;3617;48.836;9.172;2022-07-06T12:45:30;3.88;;;2.60;;
7150;SDS011;3617;48.836;9.172;2022-07-06T12:47:57;5.28;;;2.80;;
7150;SDS011;3617;48.836;9.172;2022-07-06T12:50:30;5.07;;;2.40;;
7150;SDS011;3617;48.836;9.172;2022-07-06T12:52:57;4.90;;;2.33;;
7150;SDS011;3617;48.836;9.172;2022-07-06T12:55:27;4.00;;;2.42;;
7150;SDS011;3617;48.836;9.172;2022-07-06T12:57:53;6.03;;;2.30;;
7150;SDS011;3617;48.836;9.172;2022-07-06T13:00:20;5.30;;;2.20;;
7150;SDS011;3617;48.836;9.172;2022-07-06T13:02:47;5.25;;;2.20;;
7150;SDS011;3617;48.836;9.172;2022-07-06T13:05:18;3.13;;;2.30;;
7150;SDS011;3617;48.836;9.172;2022-07-06T13:07:45;3.28;;;2.08;;
7150;SDS011;3617;48.836;9.172;2022-07-06T13:10:12;5.85;;;2.00;;
7150;SDS011;3617;48.836;9.172;2022-07-06T13:12:39;3.17;;;2.17;;
7150;SDS011;3617;48.836;9.172;2022-07-06T13:15:05;4.68;;;2.33;;
7150;SDS011;3617;48.836;9.172;2022-07-06T13:17:32;2.33;;;2.05;;
7150;SDS011;3617;48.836;9.172;2022-07-06T13:19:58;3.30;;;2.05;;
7150;SDS011;3617;48.836;9.172;2022-07-06T13:22:25;3.38;;;1.98;;
7150;SDS011;3617;48.836;9.172;2022-07-06T13:24:51;3.90;;;2.22;;
7150;SDS011;3617;48.836;9.172;2022-07-06T13:27:17;3.45;;;2.03;;
7150;SDS011;3617;48.836;9.172;2022-07-06T13:29:43;14.85;;;2.50;;
7150;SDS011;3617;48.836;9.172;2022-07-06T13:32:09;3.85;;;2.20;;
7150;SDS011;3617;48.836;9.172;2022-07-06T13:34:35;3.22;;;2.50;;
7150;SDS011;3617;48.836;9.172;2022-07-06T13:37:02;3.88;;;2.17;;
7150;SDS011;3617;48.836;9.172;2022-07-06T13:39:28;4.63;;;2.30;;
7150;SDS011;3617;48.836;9.172;2022-07-06T13:41:54;3.08;;;2.20;;
7150;SDS011;3617;48.836;9.172;2022-07-06T13:44:20;4.70;;;2.33;;
7150;SDS011;3617;48.836;9.172;2022-07-06T13:46:46;3.95;;;2.47;;
7150;SDS011;3617;48.836;9.172;2022-07-06T13:49:12;3.47;;;2.30;;
7150;SDS011;3617;48.836;9.172;2022-07-06T13:51:39;4.45;;;1.95;;
7150;SDS011;3617;48.836;9.172;2022-07-06T13:54:05;4.40;;;2.30;;
7150;SDS011;3617;48.836;9.172;2022-07-06T13:56:32;3.95;;;2.50;;
7150;SDS011;3617;48.836;9.172;2022-07-06T13:58:58;2.67;;;2.20;;
7150;SDS011;3617;48.836;9.172;2022-07-06T14:01:24;4.05;;;2.40;;
7150;SDS011;3617;48.836;9.172;2022-07-06T14:03:51;2.42;;;2.20;;
7150;SDS011;3617;48.836;9.172;2022-07-06T14:06:18;4.55;;;2.53;;
7150;SDS011;3617;48.836;9.172;2022-07-06T14:08:44;4.25;;;2.10;;
7150;SDS011;3617;48.836;9.172;2022-07-06T14:11:10;2.88;;;2.22;;
7150;SDS011;3617;48.836;9.172;2022-07-06T14:13:37;2.60;;;2.30;;
7150;SDS011;3617;48.836;9.172;2022-07-06T14:16:03;4.35;;;2.25;;
7150;SDS011;3617;48.836;9.172;2022-07-06T14:18:30;5.38;;;2.22;;
7150;SDS011;3617;48.836;9.172;2022-07-06T14:20:56;5.70;;;2.22;;
7150;SDS011;3617;48.836;9.172;2022-07-06T14:23:22;5.10;;;2.00;;
7150;SDS011;3617;48.836;9.172;2022-07-06T14:25:48;2.55;;;2.20;;
7150;SDS011;3617;48.836;9.172;2022-07-06T14:28:15;3.22;;;2.03;;
7150;SDS011;3617;48.836;9.172;2022-07-06T14:30:44;2.33;;;2.00;;
7150;SDS011;3617;48.836;9.172;2022-07-06T14:33:11;2.38;;;2.10;;
7150;SDS011;3617;48.836;9.172;2022-07-06T14:35:39;2.20;;;2.00;;
7150;SDS011;3617;48.836;9.172;2022-07-06T14:38:05;18.65;;;2.20;;
7150;SDS011;3617;48.836;9.172;2022-07-06T14:40:32;2.63;;;2.00;;
7150;SDS011;3617;48.836;9.172;2022-07-06T14:42:59;4.00;;;1.95;;
7150;SDS011;3617;48.836;9.172;2022-07-06T14:45:25;4.18;;;2.05;;
7150;SDS011;3617;48.836;9.172;2022-07-06T14:47:51;3.88;;;1.98;;
7150;SDS011;3617;48.836;9.172;2022-07-06T14:50:17;2.25;;;1.80;;
7150;SDS011;3617;48.836;9.172;2022-07-06T14:52:43;2.17;;;1.90;;
7150;SDS011;3617;48.836;9.172;2022-07-06T14:55:09;2.78;;;2.00;;
7150;SDS011;3617;48.836;9.172;2022-07-06T14:57:35;3.88;;;1.90;;
7150;SDS011;3617;48.836;9.172;2022-07-06T15:00:01;3.67;;;2.05;;
7150;SDS011;3617;48.836;9.172;2022-07-06T15:02:27;2.53;;;2.10;;
7150;SDS011;3617;48.836;9.172;2022-07-06T15:04:53;2.35;;;2.15;;
7150;SDS011;3617;48.836;9.172;2022-07-06T15:07:19;2.78;;;1.80;;
7150;SDS011;3617;48.836;9.172;2022-07-06T15:09:45;4.93;;;2.20;;
7150;SDS011;3617;48.836;9.172;2022-07-06T15:12:11;5.07;;;1.92;;
7150;SDS011;3617;48.836;9.172;2022-07-06T15:14:37;2.97;;;1.80;;
7150;SDS011;3617;48.836;9.172;2022-07-06T15:17:04;5.40;;;2.08;;
7150;SDS011;3617;48.836;9.172;2022-07-06T15:19:30;1.85;;;1.75;;
7150;SDS011;3617;48.836;9.172;2022-07-06T15:21:56;3.75;;;1.90;;
7150;SDS011;3617;48.836;9.172;2022-07-06T15:24:22;3.85;;;2.10;;
7150;SDS011;3617;48.836;9.172;2022-07-06T15:26:49;3.53;;;1.90;;